Time;durP1;ratioP1;P1;durP2;ratioP2;P2;SDS_P1;SDS_P2;PMS_P1;PMS_P2;Temp;Humidity;BMP_temperature;BMP_pressure;BME280_temperature;BME280_humidity;BME280_pressure;Samples;Min_cycle;Max_cycle;Signal;HPM_P1;HPM_P2
2022/03/29 00:01:32;;;;;;;68.47;32.63;;;9.50;99.90;;;;;;4961079;28;20840;-57
2022/03/29 00:03:59;;;;;;;75.47;33.22;;;9.50;99.90;;;;;;4980792;28;20097;-57
2022/03/29 00:06:26;;;;;;;70.00;30.02;;;9.50;99.90;;;;;;4979283;28;20050;-57
2022/03/29 00:08:52;;;;;;;72.00;32.80;;;9.40;99.90;;;;;;4982755;28;20062;-57
2022/03/29 00:11:19;;;;;;;69.82;32.90;;;9.30;99.90;;;;;;4973943;28;20047;-57
2022/03/29 00:13:46;;;;;;;62.45;29.90;;;9.40;99.90;;;;;;4981156;28;20093;-57
2022/03/29 00:16:30;;;;;;;;;;;9.40;99.90;;;;;;4982069;28;20037;-57
2022/03/29 00:18:57;;;;;;;69.70;29.17;;;9.40;99.90;;;;;;4980785;28;20313;-58
2022/03/29 00:21:24;;;;;;;61.70;28.00;;;9.40;99.90;;;;;;4630060;28;9999933;-56
2022/03/29 00:23:51;;;;;;;66.03;30.33;;;9.40;99.90;;;;;;4976577;28;20370;-56
2022/03/29 00:26:18;;;;;;;66.15;31.98;;;9.40;99.90;;;;;;4984606;28;20146;-55
2022/03/29 00:28:44;;;;;;;73.63;31.10;;;9.30;99.90;;;;;;4961425;28;20472;-55
2022/03/29 00:31:12;;;;;;;72.00;31.13;;;9.30;99.90;;;;;;4976002;28;20077;-55
2022/03/29 00:33:39;;;;;;;65.35;30.58;;;9.30;99.90;;;;;;4978906;28;20055;-55
2022/03/29 00:36:05;;;;;;;74.35;32.08;;;9.30;99.90;;;;;;4979096;28;20046;-55
2022/03/29 00:38:32;;;;;;;69.82;29.77;;;9.30;99.90;;;;;;4978471;28;20101;-56
2022/03/29 00:40:59;;;;;;;68.05;30.38;;;9.30;99.90;;;;;;4986661;28;20082;-57
2022/03/29 00:43:26;;;;;;;67.70;30.27;;;9.30;99.90;;;;;;4962134;28;20069;-55
2022/03/29 00:45:53;;;;;;;62.58;31.60;;;9.30;99.90;;;;;;4974507;28;20042;-56
2022/03/29 00:48:20;;;;;;;69.05;30.83;;;9.30;99.90;;;;;;4978122;28;20047;-58
2022/03/29 00:50:47;;;;;;;65.07;29.23;;;9.30;99.90;;;;;;4976057;28;20051;-56
2022/03/29 00:53:14;;;;;;;73.78;33.63;;;9.30;99.90;;;;;;4976973;28;20129;-55
2022/03/29 00:55:42;;;;;;;65.50;30.45;;;9.30;99.90;;;;;;4949840;28;20116;-55
2022/03/29 00:58:09;;;;;;;71.32;32.70;;;9.30;99.90;;;;;;4965818;28;20090;-57
2022/03/29 01:00:36;;;;;;;63.70;30.80;;;9.30;99.90;;;;;;4965742;28;20050;-57
2022/03/29 01:03:03;;;;;;;71.80;33.08;;;9.30;99.90;;;;;;4965872;28;20089;-57
2022/03/29 01:05:31;;;;;;;71.78;31.63;;;9.30;99.90;;;;;;4979587;28;20049;-55
2022/03/29 01:07:58;;;;;;;74.03;33.25;;;9.30;99.90;;;;;;4976723;28;20078;-55
2022/03/29 01:10:25;;;;;;;73.13;32.80;;;9.30;99.90;;;;;;4971313;28;20051;-56
2022/03/29 01:12:52;;;;;;;72.70;32.88;;;9.30;99.90;;;;;;4977452;28;20074;-57
2022/03/29 01:15:19;;;;;;;70.55;30.77;;;9.30;99.90;;;;;;4976378;28;20046;-57
2022/03/29 01:17:46;;;;;;;74.45;32.67;;;9.30;99.90;;;;;;4966502;28;20069;-55
2022/03/29 01:20:16;;;;;;;82.72;37.47;;;9.20;99.90;;;;;;4977447;28;20081;-58
2022/03/29 01:22:47;;;;;;;71.47;31.52;;;9.20;99.90;;;;;;4977477;28;20081;-56
2022/03/29 01:25:16;;;;;;;70.35;32.97;;;9.30;99.90;;;;;;4977805;28;20530;-54
2022/03/29 01:27:47;;;;;;;71.80;33.05;;;9.30;99.90;;;;;;4965968;28;20093;-55
2022/03/29 01:30:14;;;;;;;77.65;34.22;;;9.30;99.90;;;;;;4977366;28;20046;-57
2022/03/29 01:32:44;;;;;;;75.03;33.60;;;9.40;99.90;;;;;;4978233;28;20112;-57
2022/03/29 01:35:11;;;;;;;73.97;33.55;;;9.30;99.90;;;;;;4959515;28;20074;-55
2022/03/29 01:37:39;;;;;;;69.05;33.75;;;9.30;99.90;;;;;;4965246;28;20078;-58
2022/03/29 01:40:08;;;;;;;90.00;35.20;;;9.30;99.90;;;;;;4961462;28;20129;-56
2022/03/29 01:42:35;;;;;;;88.32;35.55;;;9.20;99.90;;;;;;4965111;28;20441;-56
2022/03/29 01:45:02;;;;;;;82.85;34.05;;;9.30;99.90;;;;;;4977312;28;20051;-56
2022/03/29 01:47:29;;;;;;;81.40;34.58;;;9.20;99.90;;;;;;4975036;28;20433;-56
2022/03/29 01:49:55;;;;;;;76.25;31.85;;;9.20;99.90;;;;;;4978802;28;20126;-57
2022/03/29 01:52:22;;;;;;;76.80;36.35;;;9.30;99.90;;;;;;4967172;28;20488;-57
2022/03/29 01:54:49;;;;;;;83.10;34.38;;;9.30;99.90;;;;;;4979070;28;20078;-57
2022/03/29 01:57:16;;;;;;;82.68;36.67;;;9.20;99.90;;;;;;4979144;28;20046;-56
2022/03/29 02:02:29;;;;;;;75.40;34.70;;;9.30;99.90;;;;;;4978821;28;20122;-58
2022/03/29 02:04:56;;;;;;;82.05;34.70;;;9.30;99.90;;;;;;4970395;28;20417;-57
2022/03/29 02:07:23;;;;;;;75.93;34.42;;;9.30;99.90;;;;;;4983294;28;20043;-57
2022/03/29 02:09:50;;;;;;;75.35;31.67;;;9.20;99.90;;;;;;4986886;28;20086;-56
2022/03/29 02:12:17;;;;;;;68.22;31.77;;;9.20;99.90;;;;;;4967588;28;20070;-57
2022/03/29 02:14:43;;;;;;;69.00;34.80;;;9.30;99.90;;;;;;4973765;28;20149;-57
2022/03/29 02:17:10;;;;;;;72.70;31.42;;;9.20;99.90;;;;;;4975150;28;20050;-57
2022/03/29 02:19:37;;;;;;;66.53;30.98;;;9.20;99.90;;;;;;4972051;28;20108;-57
2022/03/29 02:22:04;;;;;;;69.07;31.95;;;9.20;99.90;;;;;;4962087;28;20082;-56
2022/03/29 02:24:31;;;;;;;71.03;31.65;;;9.20;99.90;;;;;;4975314;28;20039;-57
2022/03/29 02:26:58;;;;;;;67.47;31.20;;;9.20;99.90;;;;;;4979351;28;20089;-57
2022/03/29 02:29:24;;;;;;;77.70;32.35;;;9.10;99.90;;;;;;4978673;28;20070;-58
2022/03/29 02:31:51;;;;;;;72.38;33.15;;;9.10;99.90;;;;;;4979582;28;20078;-57
2022/03/29 02:34:18;;;;;;;66.78;32.80;;;9.10;99.90;;;;;;4978873;28;20051;-58
2022/03/29 02:36:45;;;;;;;79.15;34.47;;;9.10;99.90;;;;;;4979532;28;20047;-57
2022/03/29 02:39:12;;;;;;;68.88;33.38;;;9.10;99.90;;;;;;4982103;28;20485;-56
2022/03/29 02:41:38;;;;;;;72.93;32.65;;;9.10;99.90;;;;;;4981794;28;20053;-60
2022/03/29 02:44:05;;;;;;;74.88;35.65;;;9.10;99.90;;;;;;4982572;28;20050;-59
2022/03/29 02:46:33;;;;;;;73.35;34.47;;;9.20;99.90;;;;;;4979502;28;20092;-57
2022/03/29 02:49:01;;;;;;;76.35;35.28;;;9.20;99.90;;;;;;4982303;28;20047;-54
2022/03/29 02:51:28;;;;;;;80.30;35.70;;;9.20;99.90;;;;;;4978680;28;20047;-57
2022/03/29 02:53:55;;;;;;;81.18;36.40;;;9.20;99.90;;;;;;4982104;28;20047;-60
2022/03/29 02:56:22;;;;;;;78.93;35.35;;;9.10;99.90;;;;;;4965593;28;20077;-56
2022/03/29 02:58:49;;;;;;;77.65;35.55;;;9.10;99.90;;;;;;4976059;28;20137;-58
2022/03/29 03:01:16;;;;;;;82.15;36.33;;;9.20;99.90;;;;;;4974467;28;20134;-55
2022/03/29 03:03:43;;;;;;;78.85;35.33;;;9.20;99.90;;;;;;4980461;28;20054;-53
2022/03/29 03:06:10;;;;;;;74.60;35.20;;;9.10;99.90;;;;;;4973914;28;20085;-56
2022/03/29 03:08:37;;;;;;;69.45;32.97;;;9.10;99.90;;;;;;4980842;28;20090;-60
2022/03/29 03:11:04;;;;;;;76.57;33.55;;;9.10;99.90;;;;;;4987928;28;20086;-57
2022/03/29 03:13:35;;;;;;;67.38;31.10;;;9.10;99.90;;;;;;4980958;28;20061;-53
2022/03/29 03:16:02;;;;;;;73.13;32.08;;;9.10;99.90;;;;;;4986960;28;20078;-54
2022/03/29 03:18:29;;;;;;;70.03;32.50;;;9.10;99.90;;;;;;4982074;28;20050;-58
2022/03/29 03:20:56;;;;;;;59.78;30.73;;;9.10;99.90;;;;;;4985943;28;20097;-57
2022/03/29 03:23:22;;;;;;;74.10;32.67;;;9.10;99.90;;;;;;4983385;28;20462;-56
2022/03/29 03:25:50;;;;;;;66.30;29.45;;;9.10;99.90;;;;;;4979305;28;20055;-56
2022/03/29 03:28:17;;;;;;;57.03;29.33;;;9.10;99.90;;;;;;4961563;28;20047;-55
2022/03/29 03:30:44;;;;;;;63.85;29.23;;;9.10;99.90;;;;;;4983262;28;20102;-54
2022/03/29 03:33:10;;;;;;;54.35;28.63;;;9.10;99.90;;;;;;4967267;28;20112;-58
2022/03/29 03:35:37;;;;;;;52.05;25.48;;;9.10;99.90;;;;;;4975030;28;20089;-56
2022/03/29 03:38:05;;;;;;;54.00;26.85;;;9.00;99.90;;;;;;4974388;28;20089;-56
2022/03/29 03:40:32;;;;;;;58.45;27.58;;;9.00;99.90;;;;;;4985978;28;20077;-57
2022/03/29 03:43:00;;;;;;;50.90;27.42;;;9.00;99.90;;;;;;4981057;28;20134;-58
2022/03/29 03:45:27;;;;;;;54.08;27.45;;;9.00;99.90;;;;;;4981782;28;20047;-57
2022/03/29 03:47:54;;;;;;;58.08;29.33;;;9.10;99.90;;;;;;4969429;28;20050;-56
2022/03/29 03:50:21;;;;;;;50.83;27.20;;;9.00;99.90;;;;;;4964134;28;20047;-56
2022/03/29 03:52:49;;;;;;;51.17;26.27;;;9.00;99.90;;;;;;4981196;28;20074;-57
2022/03/29 03:55:16;;;;;;;52.95;28.00;;;9.00;99.90;;;;;;4962096;28;20085;-57
2022/03/29 03:57:43;;;;;;;57.75;29.58;;;9.10;99.90;;;;;;4974889;28;20085;-58
2022/03/29 04:00:11;;;;;;;47.15;25.92;;;9.10;99.90;;;;;;4981702;28;20085;-55
2022/03/29 04:02:39;;;;;;;53.30;25.38;;;9.10;99.90;;;;;;4963393;28;20090;-57
2022/03/29 04:05:08;;;;;;;56.97;25.33;;;9.10;99.90;;;;;;4985755;28;20786;-57
2022/03/29 04:07:35;;;;;;;56.45;26.33;;;9.10;99.90;;;;;;4978943;28;20066;-55
2022/03/29 04:10:02;;;;;;;61.10;25.73;;;9.10;99.90;;;;;;4978231;28;20062;-56
2022/03/29 04:12:28;;;;;;;53.22;24.52;;;9.10;99.90;;;;;;4973636;28;20086;-57
2022/03/29 04:14:55;;;;;;;60.08;26.70;;;9.00;99.90;;;;;;4981847;28;20093;-54
2022/03/29 04:17:22;;;;;;;57.30;26.33;;;9.00;99.90;;;;;;4978993;28;20050;-55
2022/03/29 04:19:49;;;;;;;51.63;26.08;;;9.00;99.90;;;;;;4978556;28;20058;-55
2022/03/29 04:22:18;;;;;;;57.90;27.38;;;9.00;99.90;;;;;;4965782;28;20104;-56
2022/03/29 04:24:45;;;;;;;49.78;25.70;;;9.00;99.90;;;;;;4980803;28;20050;-56
2022/03/29 04:27:13;;;;;;;51.10;26.50;;;9.00;99.90;;;;;;4979055;28;20068;-55
2022/03/29 04:29:39;;;;;;;59.35;26.63;;;9.00;99.90;;;;;;4967713;28;20134;-57
2022/03/29 04:32:09;;;;;;;51.72;24.90;;;9.00;99.90;;;;;;4978279;28;20070;-57
2022/03/29 04:34:36;;;;;;;58.45;30.92;;;9.00;99.90;;;;;;4975175;28;20051;-55
2022/03/29 04:37:03;;;;;;;59.97;29.00;;;9.00;99.90;;;;;;4960129;28;20801;-57
2022/03/29 04:39:33;;;;;;;60.08;28.98;;;9.00;99.90;;;;;;4976897;28;20082;-56
2022/03/29 04:42:00;;;;;;;55.90;26.98;;;8.90;99.90;;;;;;4978450;28;20213;-57
2022/03/29 04:44:34;;;;;;;58.60;27.77;;;8.90;99.90;;;;;;4981005;28;20089;-57
2022/03/29 04:47:01;;;;;;;55.63;26.92;;;8.90;99.90;;;;;;4976453;28;20512;-57
2022/03/29 04:49:28;;;;;;;61.60;28.98;;;8.90;99.90;;;;;;4964912;28;20146;-56
2022/03/29 04:51:55;;;;;;;56.60;28.73;;;9.00;99.90;;;;;;4977511;28;20083;-58
2022/03/29 04:54:21;;;;;;;61.08;29.35;;;9.00;99.90;;;;;;4976446;28;20129;-56
2022/03/29 04:56:48;;;;;;;67.25;29.25;;;9.00;99.90;;;;;;4975724;28;20046;-54
2022/03/29 04:59:15;;;;;;;70.45;30.52;;;8.90;99.90;;;;;;4975061;28;20082;-56
2022/03/29 05:01:42;;;;;;;54.17;27.60;;;8.90;99.90;;;;;;4992792;28;20096;-54
2022/03/29 05:04:09;;;;;;;57.63;30.40;;;8.90;99.90;;;;;;4977687;28;20050;-58
2022/03/29 05:06:36;;;;;;;57.47;26.65;;;8.90;99.90;;;;;;4978408;28;20054;-56
2022/03/29 05:09:03;;;;;;;55.55;28.05;;;8.90;99.90;;;;;;4973279;28;20478;-59
2022/03/29 05:11:30;;;;;;;61.60;29.45;;;8.80;99.90;;;;;;4976761;28;20055;-57
2022/03/29 05:13:57;;;;;;;54.35;27.02;;;8.90;99.90;;;;;;4975685;28;20162;-55
2022/03/29 05:16:24;;;;;;;61.67;26.75;;;8.80;99.90;;;;;;4974854;28;20089;-56
2022/03/29 05:18:51;;;;;;;56.83;25.30;;;8.80;99.90;;;;;;4975936;28;20046;-55
2022/03/29 05:21:18;;;;;;;61.72;26.95;;;8.70;99.90;;;;;;4983114;28;20051;-54
2022/03/29 05:23:44;;;;;;;56.40;25.90;;;8.70;99.90;;;;;;4974323;28;20094;-57
2022/03/29 05:26:11;;;;;;;55.13;28.17;;;8.70;99.90;;;;;;4983424;28;20411;-56
2022/03/29 05:28:38;;;;;;;55.42;25.75;;;8.70;99.90;;;;;;4977059;28;20053;-56
2022/03/29 05:31:05;;;;;;;60.40;26.95;;;8.70;99.90;;;;;;4978642;28;20042;-55
2022/03/29 05:33:32;;;;;;;52.88;23.90;;;8.70;99.90;;;;;;4959721;28;20120;-57
2022/03/29 05:35:59;;;;;;;62.95;26.98;;;8.70;99.90;;;;;;4975306;28;20414;-55
2022/03/29 05:38:26;;;;;;;55.05;25.08;;;8.70;99.90;;;;;;4962136;28;20088;-55
2022/03/29 05:40:53;;;;;;;49.75;22.85;;;8.60;99.90;;;;;;4963754;28;20089;-56
2022/03/29 05:43:20;;;;;;;53.65;26.15;;;8.60;99.90;;;;;;4979306;28;20109;-57
2022/03/29 05:48:52;;;;;;;52.28;25.88;;;8.60;99.90;;;;;;4973640;28;20163;-57
2022/03/29 05:48:52;;;;;;;62.83;26.17;;;8.60;99.90;;;;;;4977542;28;20055;-53
2022/03/29 05:51:20;;;;;;;58.65;25.60;;;8.70;99.90;;;;;;4982383;28;20125;-57
2022/03/29 05:53:47;;;;;;;58.83;25.35;;;8.60;99.90;;;;;;4955181;28;20130;-54
2022/03/29 05:56:14;;;;;;;54.38;25.42;;;8.60;99.90;;;;;;4973425;28;20042;-56
2022/03/29 05:58:41;;;;;;;52.78;25.65;;;8.50;99.90;;;;;;4959371;28;20073;-57
2022/03/29 06:01:07;;;;;;;58.90;27.85;;;8.50;99.90;;;;;;4980142;28;20129;-59
2022/03/29 06:03:34;;;;;;;56.28;25.60;;;8.50;99.90;;;;;;4961964;28;20109;-58
2022/03/29 06:06:01;;;;;;;55.20;25.58;;;8.50;99.90;;;;;;4967145;28;20922;-58
2022/03/29 06:08:29;;;;;;;61.80;26.15;;;8.50;99.90;;;;;;4982257;28;20050;-59
2022/03/29 06:10:56;;;;;;;57.88;25.48;;;8.40;99.90;;;;;;4973484;28;20193;-58
2022/03/29 06:13:23;;;;;;;66.68;27.48;;;8.50;99.90;;;;;;4973009;28;20086;-57
2022/03/29 06:15:50;;;;;;;60.05;25.95;;;8.50;99.90;;;;;;4967305;28;20074;-57
2022/03/29 06:18:17;;;;;;;68.47;26.30;;;8.40;99.90;;;;;;4985682;28;20497;-58
2022/03/29 06:20:47;;;;;;;58.83;26.95;;;8.40;99.90;;;;;;4973557;28;20054;-57
2022/03/29 06:23:14;;;;;;;53.95;27.30;;;8.40;99.90;;;;;;4976966;28;20468;-61
2022/03/29 06:25:41;;;;;;;55.20;25.92;;;8.40;99.90;;;;;;4959131;28;20127;-57
2022/03/29 06:28:10;;;;;;;47.92;23.85;;;8.40;99.90;;;;;;4961172;28;20074;-57
2022/03/29 06:30:38;;;;;;;57.58;25.25;;;8.40;99.90;;;;;;4979838;28;20055;-57
2022/03/29 06:33:05;;;;;;;47.17;22.85;;;8.50;99.90;;;;;;4975269;28;20074;-58
2022/03/29 06:35:34;;;;;;;53.88;24.33;;;8.50;99.90;;;;;;4981304;28;20078;-57
2022/03/29 06:38:01;;;;;;;56.95;24.73;;;8.50;99.90;;;;;;4978706;28;20042;-58
2022/03/29 06:40:28;;;;;;;52.95;24.77;;;8.50;99.90;;;;;;4977622;28;20094;-58
2022/03/29 06:42:57;;;;;;;44.92;22.30;;;8.50;99.90;;;;;;4981640;28;20073;-57
2022/03/29 06:45:25;;;;;;;45.85;21.90;;;8.50;99.90;;;;;;4977553;28;20057;-54
2022/03/29 06:47:52;;;;;;;46.40;22.30;;;8.60;99.90;;;;;;4975774;28;20085;-57
2022/03/29 06:50:18;;;;;;;51.22;22.85;;;8.70;99.90;;;;;;4978783;28;20522;-58
2022/03/29 06:52:46;;;;;;;54.75;23.13;;;8.60;99.90;;;;;;4977191;28;20085;-56
2022/03/29 06:55:15;;;;;;;48.55;22.90;;;8.60;99.90;;;;;;4982362;28;20078;-56
2022/03/29 06:57:41;;;;;;;50.53;22.63;;;8.60;99.90;;;;;;4965688;28;20043;-58
2022/03/29 07:00:12;;;;;;;54.00;22.55;;;8.60;99.90;;;;;;4980963;28;20046;-56
2022/03/29 07:02:39;;;;;;;39.40;20.05;;;8.60;99.90;;;;;;4967324;28;20116;-55
2022/03/29 07:05:07;;;;;;;45.05;21.65;;;8.70;99.90;;;;;;4978685;28;20141;-58
2022/03/29 07:07:34;;;;;;;42.97;21.08;;;8.70;99.90;;;;;;4980933;28;20050;-59
2022/03/29 07:12:52;;;;;;;41.35;21.10;;;8.70;99.90;;;;;;4977259;28;20053;-59
2022/03/29 07:15:19;;;;;;;46.28;21.52;;;8.70;99.90;;;;;;4977177;28;20120;-59
2022/03/29 07:17:46;;;;;;;40.00;19.40;;;8.80;99.90;;;;;;4977992;28;20047;-58
2022/03/29 07:20:13;;;;;;;40.88;19.90;;;8.80;99.90;;;;;;4961395;28;20149;-58
2022/03/29 07:22:40;;;;;;;43.15;22.20;;;8.80;99.90;;;;;;4979275;28;20043;-60
2022/03/29 07:25:07;;;;;;;47.60;20.38;;;8.80;99.90;;;;;;4980720;28;20054;-58
2022/03/29 07:27:34;;;;;;;36.75;18.23;;;8.80;99.90;;;;;;4979156;28;20568;-58
2022/03/29 07:30:03;;;;;;;47.33;20.05;;;8.90;99.90;;;;;;4980106;28;20081;-58
2022/03/29 07:32:30;;;;;;;42.42;21.90;;;8.90;99.90;;;;;;4979382;28;20101;-57
2022/03/29 07:34:56;;;;;;;45.28;20.88;;;8.90;99.90;;;;;;4975967;28;20089;-58
2022/03/29 07:37:23;;;;;;;45.05;19.95;;;8.90;99.90;;;;;;4960670;28;20122;-57
2022/03/29 07:39:54;;;;;;;49.13;21.30;;;8.90;99.90;;;;;;4975166;28;20181;-58
2022/03/29 07:42:25;;;;;;;52.60;22.55;;;9.00;99.90;;;;;;4977579;28;20043;-58
2022/03/29 07:44:51;;;;;;;53.75;21.48;;;8.90;99.90;;;;;;4964833;28;20101;-55
2022/03/29 07:47:21;;;;;;;52.10;21.50;;;8.90;99.90;;;;;;4979299;28;20097;-57
2022/03/29 07:49:48;;;;;;;61.22;23.70;;;9.00;99.90;;;;;;4980550;28;20073;-56
2022/03/29 07:52:35;;;;;;;49.65;21.38;;;9.00;99.90;;;;;;4978314;28;20055;-57
2022/03/29 07:55:03;;;;;;;60.35;23.73;;;9.00;99.90;;;;;;4963117;28;20054;-61
2022/03/29 07:57:50;;;;;;;44.83;22.35;;;9.10;99.90;;;;;;4979985;28;20046;-55
2022/03/29 08:00:32;;;;;;;52.17;25.33;;;9.10;99.90;;;;;;4982151;28;20089;-56
2022/03/29 08:03:32;;;;;;;47.72;23.40;;;9.10;99.90;;;;;;4975592;28;20057;-58
2022/03/29 08:05:59;;;;;;;49.75;24.55;;;9.10;99.90;;;;;;4972724;28;20483;-59
2022/03/29 08:08:26;;;;;;;61.35;25.75;;;9.10;99.90;;;;;;4979510;28;20282;-58
2022/03/29 08:10:53;;;;;;;49.28;24.88;;;9.20;99.90;;;;;;4973584;28;20051;-57
2022/03/29 08:13:20;;;;;;;51.13;26.30;;;9.30;99.90;;;;;;4976774;28;20158;-58
2022/03/29 08:15:49;;;;;;;43.17;22.02;;;9.30;99.90;;;;;;4973004;28;20090;-56
2022/03/29 08:18:16;;;;;;;56.55;22.42;;;9.30;99.90;;;;;;4959572;28;20070;-58
2022/03/29 08:20:43;;;;;;;49.53;23.23;;;9.30;99.90;;;;;;4977130;28;20054;-57
2022/03/29 08:23:10;;;;;;;48.53;22.60;;;9.30;99.90;;;;;;4981368;28;20070;-59
2022/03/29 08:25:39;;;;;;;48.25;24.25;;;9.30;99.90;;;;;;4954017;28;20276;-58
2022/03/29 08:28:06;;;;;;;52.85;24.00;;;9.30;99.90;;;;;;4978224;28;20113;-58
2022/03/29 08:30:34;;;;;;;57.42;24.17;;;9.30;99.90;;;;;;4983923;28;20089;-58
2022/03/29 08:33:02;;;;;;;49.40;24.33;;;9.30;99.90;;;;;;4965707;28;20065;-58
2022/03/29 08:35:30;;;;;;;43.83;21.65;;;9.40;99.90;;;;;;4972355;28;20086;-58
2022/03/29 08:37:57;;;;;;;46.80;23.15;;;9.30;99.90;;;;;;4978260;28;20046;-58
2022/03/29 08:40:44;;;;;;;43.63;20.90;;;9.40;99.90;;;;;;4979001;28;20050;-57
2022/03/29 08:43:11;;;;;;;43.75;21.40;;;9.40;99.90;;;;;;4963993;28;20056;-58
2022/03/29 08:45:38;;;;;;;45.35;21.17;;;9.40;99.90;;;;;;4959863;28;20050;-54
2022/03/29 08:48:05;;;;;;;43.35;19.55;;;9.40;99.90;;;;;;4966806;28;20429;-59
2022/03/29 08:50:36;;;;;;;39.60;19.73;;;9.40;99.90;;;;;;4965305;28;20070;-60
2022/03/29 08:53:03;;;;;;;37.08;19.73;;;9.40;99.90;;;;;;4975765;28;20051;-58
2022/03/29 08:55:31;;;;;;;38.90;18.88;;;9.50;99.90;;;;;;4977256;28;20145;-59
2022/03/29 08:57:57;;;;;;;35.42;19.15;;;9.50;99.90;;;;;;4968842;28;20058;-58
2022/03/29 09:00:24;;;;;;;39.17;19.15;;;9.60;99.90;;;;;;4971408;28;20043;-59
2022/03/29 09:02:51;;;;;;;40.75;21.20;;;9.80;99.90;;;;;;4974119;28;20192;-56
2022/03/29 09:05:27;;;;;;;37.10;20.92;;;9.60;99.90;;;;;;4976414;28;20486;-59
2022/03/29 09:07:58;;;;;;;48.28;20.60;;;9.60;99.90;;;;;;4967442;28;20134;-58
2022/03/29 09:10:51;;;;;;;42.05;21.02;;;9.60;99.90;;;;;;4980715;28;20454;-60
2022/03/29 09:13:28;;;;;;;46.72;20.17;;;9.60;99.90;;;;;;4971849;28;20476;-57
2022/03/29 09:15:59;;;;;;;42.45;20.95;;;9.70;99.90;;;;;;4979072;28;20047;-58
2022/03/29 09:18:26;;;;;;;45.58;20.40;;;9.70;99.90;;;;;;4972495;28;20043;-58
2022/03/29 09:21:07;;;;;;;40.05;20.05;;;9.70;99.90;;;;;;4981004;28;20062;-56
2022/03/29 09:23:34;;;;;;;50.70;22.38;;;9.70;99.90;;;;;;4975599;28;20597;-58
2022/03/29 09:26:02;;;;;;;45.20;22.20;;;9.70;99.90;;;;;;4978688;28;20141;-58
2022/03/29 09:28:36;;;;;;;40.08;20.55;;;9.70;99.90;;;;;;4985621;28;20081;-57
2022/03/29 09:31:22;;;;;;;36.13;22.25;;;9.70;99.90;;;;;;4978121;28;20081;-57
2022/03/29 09:33:50;;;;;;;45.78;20.98;;;9.70;99.90;;;;;;4971701;28;20102;-60
2022/03/29 09:36:20;;;;;;;44.70;21.30;;;9.80;99.90;;;;;;4959683;28;20050;-57
2022/03/29 09:38:52;;;;;;;43.25;23.30;;;9.80;99.90;;;;;;4975265;28;20103;-58
2022/03/29 09:41:26;;;;;;;45.85;21.27;;;9.90;99.90;;;;;;4962986;28;20053;-65
2022/03/29 09:44:09;;;;;;;;;;;9.90;99.90;;;;;;4976894;28;20522;-58
2022/03/29 09:46:59;;;;;;;51.15;22.55;;;9.90;99.90;;;;;;4977439;28;19922;-59
2022/03/29 09:49:26;;;;;;;41.85;23.48;;;9.80;99.90;;;;;;4975948;28;20090;-58
2022/03/29 09:52:19;;;;;;;47.72;22.83;;;9.90;99.90;;;;;;4979755;28;20050;-58
2022/03/29 09:55:10;;;;;;;42.75;23.60;;;10.00;99.90;;;;;;4975980;28;20057;-59
2022/03/29 09:57:38;;;;;;;39.78;23.20;;;10.00;99.90;;;;;;4977667;28;20073;-62
2022/03/29 10:00:08;;;;;;;42.72;24.83;;;9.90;99.90;;;;;;4978998;28;20054;-57
2022/03/29 10:02:40;;;;;;;49.47;23.98;;;10.00;99.90;;;;;;4977686;28;20125;-57
2022/03/29 10:05:10;;;;;;;43.55;23.80;;;10.00;99.90;;;;;;4974570;28;20089;-56
2022/03/29 10:11:11;;;;;;;41.97;21.90;;;10.10;99.90;;;;;;4979025;28;20125;-56
2022/03/29 10:13:38;;;;;;;49.35;23.30;;;10.10;99.90;;;;;;4953849;28;20133;-56
2022/03/29 10:16:06;;;;;;;45.30;22.88;;;10.10;99.90;;;;;;4977187;28;20046;-60
2022/03/29 10:18:33;;;;;;;49.72;24.67;;;10.10;99.90;;;;;;4964478;28;20129;-57
2022/03/29 10:21:01;;;;;;;45.20;23.35;;;10.20;99.90;;;;;;4966135;28;20054;-58
2022/03/29 10:23:29;;;;;;;47.55;22.42;;;10.10;99.90;;;;;;4950064;28;20505;-57
2022/03/29 10:25:56;;;;;;;47.20;23.90;;;10.00;99.90;;;;;;4962724;28;20046;-57
2022/03/29 10:28:26;;;;;;;49.83;25.70;;;10.00;99.90;;;;;;4963631;28;20754;-57
2022/03/29 10:30:53;;;;;;;45.72;24.48;;;10.00;99.90;;;;;;4983775;28;20140;-60
2022/03/29 10:33:25;;;;;;;44.40;22.52;;;10.00;99.90;;;;;;4962747;28;20043;-57
2022/03/29 10:36:11;;;;;;;39.72;22.65;;;10.00;99.90;;;;;;4978019;28;20134;-56
2022/03/29 10:38:49;;;;;;;47.80;24.73;;;10.00;99.90;;;;;;4981369;28;20046;-56
2022/03/29 10:41:28;;;;;;;51.13;25.88;;;10.10;99.90;;;;;;4981487;28;20050;-55
2022/03/29 10:44:01;;;;;;;50.95;24.40;;;10.10;99.90;;;;;;4981606;28;20498;-56
2022/03/29 10:46:40;;;;;;;45.35;24.38;;;10.10;99.90;;;;;;4983696;28;20085;-57
2022/03/29 10:49:28;;;;;;;50.25;25.33;;;10.00;99.90;;;;;;4980306;28;20058;-58
2022/03/29 10:51:57;;;;;;;44.65;24.38;;;10.00;99.90;;;;;;4969907;28;20101;-58
2022/03/29 10:54:30;;;;;;;49.67;23.63;;;9.90;99.90;;;;;;4979922;28;20452;-57
2022/03/29 10:57:00;;;;;;;44.13;25.25;;;9.90;99.90;;;;;;4973907;28;20138;-57
2022/03/29 10:59:29;;;;;;;45.92;24.20;;;10.10;99.90;;;;;;4980366;28;20042;-59
2022/03/29 11:02:15;;;;;;;46.50;24.77;;;10.00;99.90;;;;;;4963145;28;20062;-56
2022/03/29 11:05:04;;;;;;;46.10;24.83;;;10.00;99.90;;;;;;4981072;28;20064;-58
2022/03/29 11:07:53;;;;;;;44.28;23.25;;;10.00;99.90;;;;;;4984246;28;20046;-57
2022/03/29 11:10:23;;;;;;;41.88;23.67;;;10.00;99.90;;;;;;4979893;28;20152;-55
2022/03/29 11:12:53;;;;;;;48.85;25.40;;;9.90;99.90;;;;;;4980272;28;20121;-57
2022/03/29 11:15:36;;;;;;;51.25;24.90;;;10.00;99.90;;;;;;4980683;28;20430;-58
2022/03/29 11:18:29;;;;;;;51.20;23.63;;;10.00;99.90;;;;;;4977980;28;20081;-56
2022/03/29 11:21:02;;;;;;;48.08;26.10;;;10.00;99.90;;;;;;4980902;28;20657;-60
2022/03/29 11:23:37;;;;;;;56.80;25.70;;;10.10;99.90;;;;;;4981144;28;20531;-57
2022/03/29 11:26:12;;;;;;;44.67;25.30;;;10.10;99.90;;;;;;4980895;28;20073;-56
2022/03/29 11:28:50;;;;;;;53.05;27.17;;;10.10;99.90;;;;;;4975781;28;20493;-55
2022/03/29 11:31:18;;;;;;;48.42;25.75;;;10.10;99.90;;;;;;4977330;28;20046;-58
2022/03/29 11:33:49;;;;;;;49.45;25.85;;;10.10;99.90;;;;;;4975370;28;20042;-56
2022/03/29 11:36:16;;;;;;;49.67;24.38;;;10.10;99.90;;;;;;4977020;28;20112;-57
2022/03/29 11:38:44;;;;;;;51.15;26.27;;;10.30;99.90;;;;;;4972055;28;20038;-57
2022/03/29 11:41:30;;;;;;;47.20;24.77;;;10.20;99.90;;;;;;4982102;28;20057;-59
2022/03/29 11:43:59;;;;;;;49.72;25.33;;;10.30;99.90;;;;;;4976346;28;20049;-56
2022/03/29 11:46:42;;;;;;;52.17;27.55;;;10.30;99.90;;;;;;4978871;28;20046;-55
2022/03/29 11:49:09;;;;;;;54.78;24.80;;;10.30;99.90;;;;;;4968996;28;20043;-57
2022/03/29 11:51:35;;;;;;;51.42;28.23;;;10.40;99.90;;;;;;4980335;28;20086;-53
2022/03/29 11:54:02;;;;;;;50.80;26.70;;;10.40;99.90;;;;;;4981177;28;20074;-59
2022/03/29 11:56:34;;;;;;;51.15;26.70;;;10.40;99.90;;;;;;4979811;28;20078;-57
2022/03/29 11:59:01;;;;;;;59.85;27.17;;;10.40;99.90;;;;;;4971812;28;20409;-56
2022/03/29 12:01:28;;;;;;;49.83;25.90;;;10.50;99.90;;;;;;4979147;28;20184;-57
2022/03/29 12:04:00;;;;;;;48.13;25.38;;;10.50;99.90;;;;;;4976260;28;20482;-56
2022/03/29 12:06:29;;;;;;;55.60;26.63;;;10.60;99.90;;;;;;4978146;28;20050;-56
2022/03/29 12:09:00;;;;;;;55.42;26.85;;;10.70;99.90;;;;;;4978128;28;20089;-58
2022/03/29 12:11:29;;;;;;;55.58;25.58;;;10.70;99.90;;;;;;4963405;28;20089;-59
2022/03/29 12:14:10;;;;;;;46.50;23.27;;;10.70;99.90;;;;;;4969819;28;20062;-58
2022/03/29 12:16:39;;;;;;;47.63;25.67;;;10.70;99.90;;;;;;4958378;28;20059;-53
2022/03/29 12:19:22;;;;;;;45.08;22.73;;;10.70;99.90;;;;;;4959138;28;20043;-57
2022/03/29 12:21:53;;;;;;;45.90;23.67;;;10.70;99.90;;;;;;4956813;28;20055;-56
2022/03/29 12:24:24;;;;;;;40.33;22.88;;;10.80;99.90;;;;;;4954454;28;20047;-58
2022/03/29 12:26:54;;;;;;;43.28;23.45;;;10.80;99.90;;;;;;4956708;28;20055;-57
2022/03/29 12:29:23;;;;;;;52.38;23.70;;;10.80;99.90;;;;;;4953889;28;20051;-57
2022/03/29 12:31:50;;;;;;;45.22;22.90;;;10.90;99.90;;;;;;4956310;28;20569;-58
2022/03/29 12:34:28;;;;;;;47.88;25.02;;;10.90;99.90;;;;;;4957262;28;20085;-59
2022/03/29 12:36:57;;;;;;;42.53;21.83;;;10.90;99.90;;;;;;4956798;28;20126;-58
2022/03/29 12:39:24;;;;;;;40.85;23.40;;;10.90;99.90;;;;;;4959368;28;20042;-58
2022/03/29 12:41:55;;;;;;;57.75;23.25;;;10.90;99.90;;;;;;4960838;28;20125;-57
2022/03/29 12:44:28;;;;;;;51.83;23.23;;;10.90;99.90;;;;;;4956535;28;20074;-56
2022/03/29 12:46:55;;;;;;;46.03;23.40;;;10.90;99.90;;;;;;4956982;28;20062;-60
2022/03/29 12:49:22;;;;;;;42.80;22.05;;;11.00;99.90;;;;;;4963004;28;20542;-57
2022/03/29 12:51:54;;;;;;;46.72;24.73;;;11.10;99.90;;;;;;4960189;28;20083;-57
2022/03/29 12:54:27;;;;;;;42.00;23.48;;;11.10;99.90;;;;;;4964229;28;20074;-58
2022/03/29 12:56:58;;;;;;;49.37;25.27;;;11.20;99.90;;;;;;4943353;28;20515;-57